Currently 60°F in Temecula, California, USA
60°F
60°F / 42°F
calm
0.00"
Monday, February 6, 2023 12:21 PM PST

Temecula, California Weather Summary
Last 36 Hours

Temperature Winds Hourly Humidity Dewpoint
Time Report Norm Report Norm Max Gusts Precip. Rpt. Norm Rpt. Norm Pressure
1,2Mon 12:21 PM  60.0°F  66°F  calm  4 mph  none  0.00"  52%  44%  42°F  43°F  30.19"
Mon 12:00 PM  59.3°F  65°F  calm  4 mph  none  0.00"  51%  46%  40°F  43°F  30.21"
Mon 11:00 AM  56.9°F  61°F  calm  3 mph  6 mph  0.00"  58%  54%  42°F  43°F  30.24"
Mon 10:00 AM  53.2°F  55°F  calm  2 mph  none  0.00"  76%  64%  45°F  43°F  30.25"
Mon 09:00 AM  48.0°F  49°F  calm  2 mph  none  0.00"  89%  76%  45°F  42°F  30.26"
Mon 08:00 AM  42.4°F  44°F  calm  1 mph  none  0.00"  98%  84%  42°F  39°F  30.25"
3Mon 07:09 AM  41.8°F  43°F  calm  1 mph  none  ----  98%  85%  41°F  38°F  30.25"
Mon 07:00 AM  41.9°F  43°F  calm  1 mph  none  0.00"  98%  85%  41°F  38°F  30.25"
Mon 06:00 AM  43.1°F  43°F  calm  1 mph  none  0.00"  98%  85%  42°F  39°F  30.23"
Mon 05:00 AM  44.1°F  44°F  calm  1 mph  none  0.00"  97%  84%  43°F  39°F  30.20"
Mon 04:00 AM  46.2°F  44°F  calm  1 mph  none  0.00"  96%  83%  45°F  39°F  30.18"
Mon 03:00 AM  48.3°F  45°F  calm  1 mph  none  0.00"  96%  81%  47°F  40°F  30.17"
Mon 02:00 AM  49.5°F  46°F  calm  1 mph  none  0.00"  96%  80%  48°F  40°F  30.19"
Mon 01:00 AM  50.1°F  47°F  calm  1 mph  none  0.00"  96%  77%  49°F  40°F  30.18"
Mon 12:00 AM  50.6°F  49°F  calm  1 mph  none  0.00"  96%  76%  49°F  41°F  30.19"
Sun 11:00 PM  51.2°F  50°F  calm  1 mph  none  0.00"  95%  74%  50°F  41°F  30.19"
Sun 10:00 PM  51.6°F  51°F  calm  1 mph  none  0.00"  94%  72%  50°F  42°F  30.20"
Sun 09:00 PM  51.4°F  53°F  calm  1 mph  4 mph  0.00"  94%  69%  50°F  43°F  30.20"
Sun 08:00 PM  51.6°F  55°F  calm  2 mph  none  0.00"  94%  66%  50°F  43°F  30.20"
Sun 07:00 PM  51.8°F  57°F  calm  2 mph  none  0.00"  92%  62%  49°F  44°F  30.19"
Sun 06:00 PM  53.3°F  60°F  calm  3 mph  none  0.00"  83%  57%  48°F  44°F  30.19"
Sun 05:00 PM  56.3°F  64°F  calm  4 mph  none  0.00"  74%  50%  48°F  44°F  30.17"
Sun 04:00 PM  59.2°F  67°F  calm  6 mph  3 mph  0.00"  76%  45%  51°F  44°F  30.16"
Sun 03:00 PM  61.5°F  68°F  calm  6 mph  2 mph  0.00"  77%  42%  54°F  43°F  30.15"
Sun 02:00 PM  63.8°F  69°F  calm  6 mph  5 mph  0.00"  69%  41%  53°F  43°F  30.14"
Sun 01:00 PM  65.7°F  67°F  calm  5 mph  none  0.00"  64%  42%  53°F  43°F  30.16"
Sun 12:00 PM  63.0°F  65°F  calm  4 mph  1 mph  0.00"  70%  46%  53°F  43°F  30.21"
Sun 11:00 AM  61.4°F  61°F  calm  3 mph  none  0.00"  75%  54%  53°F  43°F  30.25"
Sun 10:00 AM  53.8°F  55°F  calm  2 mph  none  0.00"  80%  65%  47°F  43°F  30.26"
Sun 09:00 AM  47.1°F  49°F  calm  2 mph  none  0.00"  92%  77%  45°F  42°F  30.26"
Sun 08:00 AM  43.2°F  44°F  calm  1 mph  none  0.00"  96%  85%  42°F  39°F  30.26"
Sun 07:00 AM  40.6°F  43°F  calm  1 mph  none  0.00"  97%  85%  40°F  38°F  30.24"
Sun 06:00 AM  40.8°F  43°F  calm  1 mph  none  0.00"  96%  85%  40°F  39°F  30.22"
Sun 05:00 AM  41.4°F  44°F  calm  1 mph  none  0.00"  95%  84%  40°F  39°F  30.22"
Sun 04:00 AM  42.6°F  44°F  calm  1 mph  none  0.00"  94%  83%  41°F  39°F  30.21"
Sun 03:00 AM  42.8°F  45°F  calm  1 mph  none  0.00"  94%  82%  41°F  40°F  30.22"
Sun 02:00 AM  44.0°F  46°F  calm  1 mph  none  0.00"  92%  80%  42°F  40°F  30.22"
Sun 01:00 AM  45.1°F  47°F  calm  1 mph  none  0.00"  90%  78%  42°F  41°F  30.23"

  1. Current weather data. No green row appears if the current weather data is also the high or low for the current day.
  2. High temperature for the current day.
  3. Low temperature for the current day.

The Temecula weather pages are a service of WeatherCurrents. Temecula, California is located in the Temecula Valley, in southwestern Riverside County, along the Interstate 15 highway. The Temecula Valley's rolling hills are home to the Temecula wine country, vineyards, golf courses, a casino resort, and Old Town Temecula.
Copyright ©2023  WeatherCurrents. All rights reserved. - Submit questions and comments - Privacy Policy

This page automatically refreshes every 10 minutes.